TRA1R LDSP-EHRD
Flight info
| Callsign | TRA1R |
|---|---|
| Flight time | N/A |
| Altitude | 36000 |
| Route | ZDA DCT MOBDO DCT SOTOV DCT KPT DCT MOMUK DCT USUDO DCT LIRSU DCT SOGRI L608 BUB Y28 HELEN |
| Aircraft | A21N/M-SDE3FGHIRWY/LB1 |
Departure
| Time | 2026-05-04 19:43 |
|---|---|
| Airport | Split Saint Jerome Airport (LDSP) |
Arrival
| Time | N/A |
|---|---|
| Airport | Rotterdam The Hague Airport (EHRD) |
| Time | Latitude | Longitude | Altitude | Speed | Heading |
|---|---|---|---|---|---|
| 2026-05-04 19:06 | 43.53691 | 16.29813 | 80 ft | 0 kts | 114° |
| 2026-05-04 19:36 | 43.53692 | 16.29816 | 80 ft | 0 kts | 90° |
| 2026-05-04 19:36 | 43.53696 | 16.29818 | 80 ft | 1 kts | 43° |
| 2026-05-04 19:36 | 43.53700 | 16.29816 | 80 ft | 0 kts | 359° |
| 2026-05-04 19:37 | 43.53704 | 16.29809 | 78 ft | 2 kts | 319° |
| 2026-05-04 19:37 | 43.53726 | 16.29780 | 91 ft | 5 kts | 315° |
| 2026-05-04 19:37 | 43.53729 | 16.29749 | 84 ft | 2 kts | 257° |
| 2026-05-04 19:37 | 43.53722 | 16.29730 | 81 ft | 3 kts | 240° |
| 2026-05-04 19:38 | 43.53703 | 16.29694 | 84 ft | 7 kts | 233° |
| 2026-05-04 19:38 | 43.53671 | 16.29629 | 85 ft | 9 kts | 250° |
| 2026-05-04 19:38 | 43.53690 | 16.29564 | 85 ft | 7 kts | 302° |
| 2026-05-04 19:38 | 43.53695 | 16.29486 | 85 ft | 10 kts | 262° |
| 2026-05-04 19:39 | 43.53660 | 16.29374 | 89 ft | 15 kts | 234° |
| 2026-05-04 19:39 | 43.53596 | 16.29260 | 88 ft | 16 kts | 233° |
| 2026-05-04 19:39 | 43.53527 | 16.29135 | 88 ft | 17 kts | 232° |
| 2026-05-04 19:39 | 43.53454 | 16.29004 | 87 ft | 18 kts | 232° |
| 2026-05-04 19:40 | 43.53375 | 16.28861 | 88 ft | 18 kts | 232° |
| 2026-05-04 19:40 | 43.53317 | 16.28758 | 90 ft | 11 kts | 232° |
| 2026-05-04 19:40 | 43.53271 | 16.28675 | 85 ft | 11 kts | 232° |
| 2026-05-04 19:40 | 43.53228 | 16.28623 | 86 ft | 7 kts | 192° |
| 2026-05-04 19:41 | 43.53190 | 16.28596 | 85 ft | 5 kts | 252° |
| 2026-05-04 19:41 | 43.53206 | 16.28575 | 85 ft | 2 kts | 2° |
| 2026-05-04 19:41 | 43.53220 | 16.28588 | 83 ft | 3 kts | 42° |
| 2026-05-04 19:41 | 43.53232 | 16.28608 | 86 ft | 0 kts | 51° |
| 2026-05-04 19:42 | 43.53233 | 16.28610 | 86 ft | 3 kts | 51° |
| 2026-05-04 19:43 | 43.53373 | 16.28858 | 89 ft | 77 kts | 53° |
| 2026-05-04 19:43 | 43.53863 | 16.29749 | 88 ft | 153 kts | 53° |
| 2026-05-04 19:43 | 43.54552 | 16.31009 | 716 ft | 166 kts | 54° |
| 2026-05-04 19:43 | 43.54933 | 16.32516 | 1491 ft | 178 kts | 95° |
| 2026-05-04 19:44 | 43.54484 | 16.34102 | 2231 ft | 178 kts | 126° |
| 2026-05-04 19:44 | 43.53593 | 16.35338 | 2743 ft | 184 kts | 142° |
| 2026-05-04 19:44 | 43.52566 | 16.36422 | 3103 ft | 192 kts | 142° |
| 2026-05-04 19:44 | 43.51526 | 16.37608 | 3543 ft | 196 kts | 140° |
| 2026-05-04 19:45 | 43.50396 | 16.38673 | 3993 ft | 198 kts | 150° |
| 2026-05-04 19:45 | 43.49180 | 16.39584 | 4466 ft | 200 kts | 153° |
| 2026-05-04 19:45 | 43.47940 | 16.40463 | 4940 ft | 201 kts | 154° |
| 2026-05-04 19:45 | 43.46613 | 16.41032 | 5375 ft | 201 kts | 181° |
| 2026-05-04 19:46 | 43.45283 | 16.40511 | 5733 ft | 207 kts | 214° |
| 2026-05-04 19:46 | 43.44266 | 16.39011 | 5890 ft | 224 kts | 232° |
| 2026-05-04 19:46 | 43.43285 | 16.37226 | 6002 ft | 246 kts | 232° |
| 2026-05-04 19:46 | 43.42203 | 16.35255 | 6274 ft | 267 kts | 232° |
| 2026-05-04 19:47 | 43.41064 | 16.33189 | 6919 ft | 273 kts | 232° |
| 2026-05-04 19:47 | 43.39910 | 16.31106 | 7621 ft | 276 kts | 232° |
| 2026-05-04 19:47 | 43.38737 | 16.28995 | 8337 ft | 278 kts | 232° |
| 2026-05-04 19:47 | 43.37554 | 16.26869 | 9059 ft | 281 kts | 232° |
| 2026-05-04 19:48 | 43.36362 | 16.24729 | 9783 ft | 284 kts | 232° |
| 2026-05-04 19:48 | 43.35472 | 16.22298 | 10409 ft | 289 kts | 258° |
| 2026-05-04 19:48 | 43.35578 | 16.19543 | 11009 ft | 296 kts | 289° |
| 2026-05-04 19:48 | 43.36717 | 16.17168 | 11466 ft | 310 kts | 315° |
| 2026-05-04 19:49 | 43.38389 | 16.15148 | 11599 ft | 332 kts | 320° |
| 2026-05-04 19:49 | 43.40254 | 16.13121 | 11808 ft | 349 kts | 321° |
| 2026-05-04 19:49 | 43.42206 | 16.11081 | 12326 ft | 356 kts | 322° |
| 2026-05-04 19:49 | 43.44190 | 16.09008 | 12944 ft | 359 kts | 321° |
| 2026-05-04 19:50 | 43.46182 | 16.06901 | 13566 ft | 363 kts | 321° |
| 2026-05-04 19:50 | 43.48175 | 16.04760 | 14169 ft | 366 kts | 321° |
| 2026-05-04 19:50 | 43.50183 | 16.02572 | 14730 ft | 369 kts | 320° |
| 2026-05-04 19:50 | 43.52203 | 16.00349 | 15320 ft | 372 kts | 320° |
| 2026-05-04 19:51 | 43.54227 | 15.98109 | 15888 ft | 375 kts | 320° |
| 2026-05-04 19:51 | 43.56274 | 15.95840 | 16443 ft | 379 kts | 320° |
| 2026-05-04 19:51 | 43.58338 | 15.93559 | 16985 ft | 382 kts | 320° |
| 2026-05-04 19:51 | 43.60418 | 15.91262 | 17533 ft | 385 kts | 320° |
| 2026-05-04 19:52 | 43.62519 | 15.88941 | 18084 ft | 388 kts | 320° |
| 2026-05-04 19:52 | 43.64638 | 15.86598 | 18591 ft | 391 kts | 320° |
| 2026-05-04 19:52 | 43.66768 | 15.84239 | 19053 ft | 393 kts | 320° |
| 2026-05-04 19:52 | 43.68904 | 15.81872 | 19530 ft | 395 kts | 320° |
| 2026-05-04 19:53 | 43.71052 | 15.79492 | 20006 ft | 397 kts | 320° |
| 2026-05-04 19:53 | 43.73216 | 15.77090 | 20490 ft | 399 kts | 320° |
| 2026-05-04 19:53 | 43.75381 | 15.74681 | 20947 ft | 401 kts | 320° |
| 2026-05-04 19:53 | 43.77557 | 15.72258 | 21408 ft | 403 kts | 320° |
| 2026-05-04 19:54 | 43.79749 | 15.69813 | 21883 ft | 405 kts | 320° |
| 2026-05-04 19:54 | 43.81944 | 15.67365 | 22342 ft | 407 kts | 320° |
| 2026-05-04 19:54 | 43.84154 | 15.64902 | 22800 ft | 409 kts | 320° |
| 2026-05-04 19:54 | 43.86373 | 15.62432 | 23225 ft | 411 kts | 320° |
| 2026-05-04 19:55 | 43.88609 | 15.59942 | 23619 ft | 414 kts | 320° |
| 2026-05-04 19:55 | 43.90867 | 15.57420 | 23970 ft | 416 kts | 320° |
| 2026-05-04 19:55 | 43.93122 | 15.54894 | 24349 ft | 418 kts | 320° |
| 2026-05-04 19:55 | 43.95388 | 15.52347 | 24723 ft | 419 kts | 320° |
| 2026-05-04 19:56 | 43.97656 | 15.49796 | 25104 ft | 421 kts | 320° |
| 2026-05-04 19:56 | 43.99937 | 15.47229 | 25457 ft | 423 kts | 320° |
| 2026-05-04 19:56 | 44.01454 | 15.45524 | 25690 ft | 424 kts | 320° |
| 2026-05-04 19:56 | 44.03753 | 15.42944 | 26045 ft | 425 kts | 320° |
| 2026-05-04 19:57 | 44.06806 | 15.39511 | 26503 ft | 427 kts | 320° |
| 2026-05-04 19:57 | 44.09111 | 15.36895 | 26835 ft | 429 kts | 317° |
| 2026-05-04 19:57 | 44.11243 | 15.33998 | 27148 ft | 430 kts | 313° |
| 2026-05-04 19:57 | 44.13333 | 15.30995 | 27459 ft | 432 kts | 313° |
| 2026-05-04 19:58 | 44.14749 | 15.28958 | 27676 ft | 433 kts | 313° |
| 2026-05-04 19:58 | 44.16851 | 15.25936 | 28005 ft | 435 kts | 313° |
| 2026-05-04 19:58 | 44.18961 | 15.22903 | 28322 ft | 437 kts | 313° |
| 2026-05-04 19:58 | 44.21052 | 15.19899 | 28625 ft | 438 kts | 313° |
| 2026-05-04 19:59 | 44.23174 | 15.16842 | 28926 ft | 440 kts | 312° |
| 2026-05-04 19:59 | 44.25349 | 15.13703 | 29220 ft | 441 kts | 312° |
| 2026-05-04 19:59 | 44.27467 | 15.10642 | 29512 ft | 443 kts | 312° |
| 2026-05-04 19:59 | 44.29582 | 15.07589 | 29790 ft | 444 kts | 312° |
| 2026-05-04 20:00 | 44.31734 | 15.04482 | 30038 ft | 446 kts | 312° |
| 2026-05-04 20:00 | 44.33895 | 15.01357 | 30285 ft | 448 kts | 312° |
| 2026-05-04 20:00 | 44.36065 | 14.98220 | 30541 ft | 449 kts | 312° |
| 2026-05-04 20:00 | 44.38259 | 14.95043 | 30882 ft | 448 kts | 312° |
| 2026-05-04 20:01 | 44.40386 | 14.91952 | 31291 ft | 445 kts | 312° |
| 2026-05-04 20:01 | 44.42528 | 14.88829 | 31657 ft | 444 kts | 312° |
| 2026-05-04 20:01 | 44.44661 | 14.85715 | 32024 ft | 442 kts | 312° |
| 2026-05-04 20:01 | 44.46780 | 14.82619 | 32411 ft | 440 kts | 312° |
| 2026-05-04 20:02 | 44.48892 | 14.79531 | 32818 ft | 438 kts | 312° |
| 2026-05-04 20:02 | 44.50995 | 14.76455 | 33224 ft | 435 kts | 312° |
| 2026-05-04 20:02 | 44.53080 | 14.73405 | 33637 ft | 433 kts | 311° |
| 2026-05-04 20:02 | 44.55162 | 14.70358 | 34041 ft | 430 kts | 311° |
| 2026-05-04 20:03 | 44.57219 | 14.67343 | 34380 ft | 428 kts | 311° |
| 2026-05-04 20:03 | 44.59274 | 14.64330 | 34699 ft | 426 kts | 311° |
| 2026-05-04 20:03 | 44.61321 | 14.61324 | 34993 ft | 425 kts | 311° |
| 2026-05-04 20:03 | 44.63355 | 14.58330 | 35286 ft | 423 kts | 311° |
| 2026-05-04 20:04 | 44.65384 | 14.55336 | 35568 ft | 423 kts | 311° |
| 2026-05-04 20:04 | 44.67410 | 14.52348 | 35803 ft | 423 kts | 311° |
| 2026-05-04 20:04 | 44.69438 | 14.49356 | 36020 ft | 423 kts | 311° |
| 2026-05-04 20:05 | 44.73473 | 14.43381 | 36107 ft | 419 kts | 311° |
| 2026-05-04 20:05 | 44.77480 | 14.37437 | 36105 ft | 418 kts | 311° |
| 2026-05-04 20:06 | 44.81485 | 14.31496 | 36089 ft | 418 kts | 311° |
| 2026-05-04 20:06 | 44.85487 | 14.25550 | 36106 ft | 418 kts | 311° |
| 2026-05-04 20:07 | 44.89481 | 14.19589 | 36100 ft | 418 kts | 311° |
| 2026-05-04 20:07 | 44.93476 | 14.13618 | 36088 ft | 419 kts | 311° |
| 2026-05-04 20:08 | 44.97475 | 14.07632 | 36093 ft | 419 kts | 311° |
| 2026-05-04 20:08 | 45.01478 | 14.01635 | 36095 ft | 420 kts | 311° |
| 2026-05-04 20:09 | 45.05475 | 13.95624 | 36096 ft | 420 kts | 311° |
| 2026-05-04 20:09 | 45.09471 | 13.89600 | 36090 ft | 420 kts | 310° |
| 2026-05-04 20:10 | 45.13464 | 13.83561 | 36110 ft | 420 kts | 310° |
| 2026-05-04 20:10 | 45.17456 | 13.77500 | 36098 ft | 421 kts | 310° |
| 2026-05-04 20:11 | 45.21454 | 13.71433 | 36102 ft | 421 kts | 310° |
| 2026-05-04 20:11 | 45.25448 | 13.65364 | 36099 ft | 421 kts | 310° |
| 2026-05-04 20:12 | 45.29445 | 13.59286 | 36111 ft | 421 kts | 310° |
| 2026-05-04 20:12 | 45.33436 | 13.53189 | 36108 ft | 421 kts | 310° |
| 2026-05-04 20:13 | 45.37420 | 13.47078 | 36116 ft | 422 kts | 310° |
| 2026-05-04 20:13 | 45.41410 | 13.40960 | 36111 ft | 422 kts | 310° |
| 2026-05-04 20:14 | 45.45406 | 13.34819 | 36097 ft | 423 kts | 310° |
| 2026-05-04 20:14 | 45.49400 | 13.28663 | 36090 ft | 423 kts | 310° |
| 2026-05-04 20:15 | 45.53392 | 13.22491 | 36073 ft | 423 kts | 310° |
| 2026-05-04 20:15 | 45.57378 | 13.16309 | 36061 ft | 424 kts | 310° |
| 2026-05-04 20:16 | 45.61375 | 13.10115 | 36067 ft | 424 kts | 310° |
| 2026-05-04 20:16 | 45.65372 | 13.03912 | 36065 ft | 424 kts | 310° |
| 2026-05-04 20:17 | 45.69360 | 12.97680 | 36067 ft | 425 kts | 310° |
| 2026-05-04 20:17 | 45.73353 | 12.91441 | 36063 ft | 425 kts | 310° |
| 2026-05-04 20:18 | 45.77343 | 12.85196 | 36059 ft | 425 kts | 310° |
| 2026-05-04 20:18 | 45.81332 | 12.78941 | 36052 ft | 425 kts | 309° |
| 2026-05-04 20:19 | 45.85291 | 12.72714 | 36058 ft | 425 kts | 309° |
| 2026-05-04 20:19 | 45.89273 | 12.66435 | 36062 ft | 426 kts | 309° |
| 2026-05-04 20:20 | 45.93258 | 12.60133 | 36058 ft | 426 kts | 309° |
| 2026-05-04 20:20 | 45.97238 | 12.53814 | 36053 ft | 427 kts | 309° |
| 2026-05-04 20:21 | 46.01229 | 12.47490 | 36055 ft | 427 kts | 309° |
| 2026-05-04 20:21 | 46.07211 | 12.37963 | 36069 ft | 428 kts | 309° |
| 2026-05-04 20:22 | 46.11205 | 12.31592 | 36068 ft | 429 kts | 309° |
| 2026-05-04 20:22 | 46.15201 | 12.25205 | 36072 ft | 429 kts | 309° |
| 2026-05-04 20:23 | 46.19182 | 12.18803 | 36077 ft | 429 kts | 309° |
| 2026-05-04 20:23 | 46.23171 | 12.12380 | 36082 ft | 429 kts | 309° |
| 2026-05-04 20:24 | 46.27160 | 12.05959 | 36099 ft | 429 kts | 309° |
| 2026-05-04 20:24 | 46.31147 | 11.99528 | 36087 ft | 429 kts | 309° |
| 2026-05-04 20:25 | 46.35124 | 11.93086 | 36092 ft | 429 kts | 309° |
| 2026-05-04 20:25 | 46.39104 | 11.86618 | 36080 ft | 430 kts | 308° |
| 2026-05-04 20:26 | 46.43217 | 11.80306 | 36079 ft | 433 kts | 317° |
| 2026-05-04 20:26 | 46.47956 | 11.74885 | 36056 ft | 434 kts | 319° |
| 2026-05-04 20:27 | 46.52670 | 11.69479 | 36055 ft | 435 kts | 318° |
| 2026-05-04 20:27 | 46.57407 | 11.64016 | 36050 ft | 435 kts | 318° |
| 2026-05-04 20:28 | 46.62152 | 11.58544 | 36058 ft | 435 kts | 318° |
| 2026-05-04 20:28 | 46.66898 | 11.53066 | 36052 ft | 435 kts | 318° |
| 2026-05-04 20:29 | 46.71633 | 11.47579 | 36056 ft | 435 kts | 318° |
| 2026-05-04 20:29 | 46.76374 | 11.42076 | 36076 ft | 435 kts | 318° |
| 2026-05-04 20:30 | 46.81117 | 11.36574 | 36076 ft | 436 kts | 318° |
| 2026-05-04 20:30 | 46.85854 | 11.31048 | 36086 ft | 436 kts | 318° |
| 2026-05-04 20:31 | 46.90587 | 11.25518 | 36077 ft | 436 kts | 318° |
| 2026-05-04 20:31 | 46.95323 | 11.19989 | 36051 ft | 436 kts | 319° |
| 2026-05-04 20:32 | 47.00218 | 11.14715 | 36080 ft | 437 kts | 321° |
| 2026-05-04 20:32 | 47.05195 | 11.09598 | 36062 ft | 437 kts | 321° |
| 2026-05-04 20:33 | 47.10160 | 11.04435 | 36075 ft | 437 kts | 321° |
| 2026-05-04 20:33 | 47.15085 | 10.99202 | 36069 ft | 437 kts | 321° |
| 2026-05-04 20:34 | 47.19998 | 10.93936 | 36063 ft | 437 kts | 321° |
| 2026-05-04 20:34 | 47.24921 | 10.88675 | 36063 ft | 438 kts | 321° |
| 2026-05-04 20:35 | 47.29852 | 10.83414 | 36056 ft | 438 kts | 321° |
| 2026-05-04 20:35 | 47.34774 | 10.78138 | 36040 ft | 438 kts | 320° |
| 2026-05-04 20:36 | 47.39705 | 10.72835 | 36034 ft | 439 kts | 320° |
| 2026-05-04 20:36 | 47.44643 | 10.67511 | 36018 ft | 439 kts | 320° |
| 2026-05-04 20:37 | 47.49583 | 10.62183 | 36017 ft | 440 kts | 320° |
| 2026-05-04 20:37 | 47.54521 | 10.56834 | 36017 ft | 440 kts | 320° |
| 2026-05-04 20:38 | 47.59456 | 10.51477 | 36005 ft | 440 kts | 320° |
| 2026-05-04 20:38 | 47.64396 | 10.46111 | 36005 ft | 441 kts | 320° |
| 2026-05-04 20:39 | 47.69302 | 10.40758 | 35999 ft | 441 kts | 320° |
| 2026-05-04 20:39 | 47.73773 | 10.34651 | 35993 ft | 434 kts | 304° |
| 2026-05-04 20:40 | 47.76710 | 10.26960 | 35987 ft | 426 kts | 288° |
| 2026-05-04 20:40 | 47.78868 | 10.18694 | 35978 ft | 427 kts | 288° |
| 2026-05-04 20:41 | 47.81037 | 10.10470 | 35984 ft | 427 kts | 288° |
| 2026-05-04 20:41 | 47.83375 | 10.02397 | 35978 ft | 431 kts | 297° |
| 2026-05-04 20:42 | 47.87189 | 9.95455 | 35965 ft | 439 kts | 316° |
| 2026-05-04 20:42 | 47.91062 | 9.90545 | 35966 ft | 440 kts | 316° |
| 2026-05-04 20:43 | 47.95715 | 9.84609 | 35958 ft | 440 kts | 316° |
| 2026-05-04 20:43 | 48.00356 | 9.78661 | 35977 ft | 440 kts | 315° |
| 2026-05-04 20:44 | 48.04999 | 9.72684 | 35966 ft | 441 kts | 315° |
| 2026-05-04 20:44 | 48.09630 | 9.66679 | 35963 ft | 440 kts | 314° |
| 2026-05-04 20:45 | 48.14089 | 9.60408 | 35962 ft | 439 kts | 311° |
| 2026-05-04 20:45 | 48.18434 | 9.53970 | 35965 ft | 439 kts | 311° |
| 2026-05-04 20:46 | 48.22791 | 9.47544 | 35965 ft | 440 kts | 312° |
| 2026-05-04 20:46 | 48.27182 | 9.41151 | 35987 ft | 440 kts | 312° |
| 2026-05-04 20:47 | 48.31580 | 9.34750 | 35972 ft | 441 kts | 312° |
| 2026-05-04 20:47 | 48.35981 | 9.28326 | 35970 ft | 441 kts | 311° |
| 2026-05-04 20:48 | 48.40380 | 9.21867 | 35969 ft | 442 kts | 311° |
| 2026-05-04 20:48 | 48.44765 | 9.15403 | 35973 ft | 442 kts | 311° |
| 2026-05-04 20:49 | 48.49158 | 9.08923 | 35989 ft | 442 kts | 311° |
| 2026-05-04 20:49 | 48.53553 | 9.02429 | 35980 ft | 442 kts | 311° |
| 2026-05-04 20:50 | 48.57944 | 8.95922 | 35978 ft | 442 kts | 311° |
| 2026-05-04 20:50 | 48.62328 | 8.89405 | 35976 ft | 442 kts | 311° |
| 2026-05-04 20:51 | 48.66711 | 8.82863 | 35980 ft | 443 kts | 311° |
| 2026-05-04 20:51 | 48.71090 | 8.76323 | 35984 ft | 443 kts | 311° |
| 2026-05-04 20:52 | 48.75474 | 8.69768 | 36017 ft | 443 kts | 311° |
| 2026-05-04 20:52 | 48.79856 | 8.63187 | 35996 ft | 443 kts | 311° |
| 2026-05-04 20:53 | 48.84199 | 8.56630 | 35989 ft | 444 kts | 311° |
| 2026-05-04 20:53 | 48.88583 | 8.50023 | 35982 ft | 444 kts | 311° |
| 2026-05-04 20:54 | 48.92972 | 8.43393 | 35989 ft | 445 kts | 311° |
| 2026-05-04 20:54 | 48.97348 | 8.36751 | 35989 ft | 445 kts | 311° |
| 2026-05-04 20:55 | 49.01720 | 8.30093 | 35993 ft | 445 kts | 311° |
| 2026-05-04 20:55 | 49.06091 | 8.23425 | 35989 ft | 445 kts | 310° |
| 2026-05-04 20:56 | 49.10462 | 8.16740 | 35992 ft | 445 kts | 310° |
| 2026-05-04 20:56 | 49.14846 | 8.10021 | 35990 ft | 445 kts | 310° |